Pagrindinis puslapis
METAR-TAF:

METAR-TAF

Oro uostai :

Rojetas, Tailandas

platuma: 16-07-00N, ilguma: 103-46-26E, Aukštis: 138 m

Dabartinis oras

Ataskaita buvo paskelbta 43 minutes, ne 08:00 UTC
Vėjas 14 kt iš Rytų/Šiaurės Rytų, svyruoja nuo Šiaurės/Šiaurės Rytų ir Rytų
Temperatūra 29°C
Drėgmė 40%
Slėgis 1014 hPa
Matomumas 10 km arba daugiau
nėra debesų žemiau 1500 m ir nėra kamuolinių lietaus debesų

METAR: VTUV 170800Z 06014KT 030V090 CAVOK 29/14 Q1014 NOSIG

Laikas: 15:43 (08:43 UTC)

Prognozė

Ataskaita buvo paskelbta 3 valandos ir 43 minutes, ne 05:00 UTC
Prognozė galioja nuo 17 metu 06 UTC su 18 metu 06 UTC
Vėjas 12 kt iš Rytų/Šiaurės Rytų
Matomumas: 9000 m
Laikinai
nuo 17 metu 09 UTC su 17 metu 12 UTC
Vėjas 25 kt iš Rytų/Šiaurės Rytų

TAF: VTUV 170500Z 1706/1806 06012KT 9000 NSC TEMPO 1709/1712 06025KT

Orai ataskaitas ir orų prognozės (METAR, TAF).

turimą stotys yra geltonos ir raudonos taškus žemėlapyje.

Perkelti pele per norėdami pamatyti stoties vardą.

Tada spustelėkite, norėdami matyti oro stebėjimo ir prognozės.

Norėdami pakeisti žemėlapį: spustelėkite ant žalios mygtukų su juodo kryžiaus žemyn,; žalią mygtuką su brūkšneliu, jei norite nutolinti; arba žalių rodyklių gretimoms žemėlapius.


METAR-TAF: